createdAt,value
2018-12-18T00:00:37.838Z,983.48
2018-12-18T00:01:37.750Z,983.46
2018-12-18T00:02:37.740Z,983.43
2018-12-18T00:03:39.396Z,983.44
2018-12-18T00:04:37.702Z,983.45
2018-12-18T00:05:37.688Z,983.45
2018-12-18T00:06:37.669Z,983.47
2018-12-18T00:07:37.656Z,983.45
2018-12-18T00:08:37.639Z,983.44
2018-12-18T00:09:37.624Z,983.44
2018-12-18T00:10:37.610Z,983.47
2018-12-18T00:11:37.594Z,983.46
2018-12-18T00:12:37.575Z,983.47
2018-12-18T00:13:37.560Z,983.48
2018-12-18T00:14:37.542Z,983.51
2018-12-18T00:15:37.530Z,983.47
2018-12-18T00:16:37.512Z,983.46
2018-12-18T00:17:37.497Z,983.49
2018-12-18T00:18:37.481Z,983.46
2018-12-18T00:19:37.463Z,983.45
2018-12-18T00:20:37.447Z,983.44
2018-12-18T00:21:37.433Z,983.47
2018-12-18T00:22:37.417Z,983.46
2018-12-18T00:23:37.402Z,983.45
2018-12-18T00:24:37.384Z,983.45
2018-12-18T00:25:37.370Z,983.42
2018-12-18T00:26:37.352Z,983.44
2018-12-18T00:27:37.337Z,983.40
2018-12-18T00:28:37.321Z,983.41
2018-12-18T00:29:37.308Z,983.41
2018-12-18T00:30:37.290Z,983.35
2018-12-18T00:31:37.273Z,983.42
2018-12-18T00:32:37.259Z,983.41
2018-12-18T00:33:37.243Z,983.38
2018-12-18T00:34:37.226Z,983.41
2018-12-18T00:35:37.210Z,983.41
2018-12-18T00:36:37.194Z,983.39
2018-12-18T00:37:37.177Z,983.39
2018-12-18T00:38:37.163Z,983.34
2018-12-18T00:39:37.148Z,983.35
2018-12-18T00:40:37.132Z,983.29
2018-12-18T00:41:37.115Z,983.28
2018-12-18T00:42:37.103Z,983.27
2018-12-18T00:43:37.083Z,983.22
2018-12-18T00:44:37.067Z,983.20
2018-12-18T00:45:37.052Z,983.26
2018-12-18T00:46:37.035Z,983.27
2018-12-18T00:47:37.021Z,983.28
2018-12-18T00:48:37.002Z,983.27
2018-12-18T00:49:36.989Z,983.28
2018-12-18T00:50:36.970Z,983.32
2018-12-18T00:51:36.954Z,983.28
2018-12-18T00:52:36.939Z,983.30
2018-12-18T00:53:36.923Z,983.32
2018-12-18T00:54:36.906Z,983.32
2018-12-18T00:55:36.890Z,983.33
2018-12-18T00:56:36.874Z,983.31
2018-12-18T00:57:36.859Z,983.32
2018-12-18T00:58:36.842Z,983.32
2018-12-18T00:59:36.827Z,983.30
2018-12-18T01:00:36.814Z,983.32
2018-12-18T01:01:36.796Z,983.32
2018-12-18T01:02:36.779Z,983.34
2018-12-18T01:03:36.764Z,983.35
2018-12-18T01:04:36.747Z,983.32
2018-12-18T01:05:36.731Z,983.30
2018-12-18T01:06:36.713Z,983.29
2018-12-18T01:07:36.697Z,983.34
2018-12-18T01:08:36.687Z,983.30
2018-12-18T01:09:36.670Z,983.32
2018-12-18T01:10:36.650Z,983.29
2018-12-18T01:11:36.634Z,983.31
2018-12-18T01:12:36.624Z,983.27
2018-12-18T01:13:36.605Z,983.26
2018-12-18T01:14:36.586Z,983.28
2018-12-18T01:15:36.571Z,983.26
2018-12-18T01:16:36.554Z,983.26
2018-12-18T01:17:36.538Z,983.21
2018-12-18T01:18:36.522Z,983.23
2018-12-18T01:19:36.562Z,983.21
2018-12-18T01:20:36.491Z,983.22
2018-12-18T01:21:36.475Z,983.18
2018-12-18T01:22:36.458Z,983.22
2018-12-18T01:23:36.449Z,983.22
2018-12-18T01:24:36.430Z,983.22
2018-12-18T01:25:36.412Z,983.19
2018-12-18T01:26:36.395Z,983.20
2018-12-18T01:27:36.380Z,983.23
2018-12-18T01:28:36.364Z,983.20
2018-12-18T01:29:36.347Z,983.20
2018-12-18T01:30:36.330Z,983.18
2018-12-18T01:31:36.314Z,983.20
2018-12-18T01:32:36.299Z,983.23
2018-12-18T01:33:36.282Z,983.15
2018-12-18T01:34:36.265Z,983.18
2018-12-18T01:35:36.250Z,983.20
2018-12-18T01:36:36.235Z,983.20
2018-12-18T01:37:36.219Z,983.20
2018-12-18T01:38:36.205Z,983.22
2018-12-18T01:39:36.255Z,983.27
2018-12-18T01:40:36.171Z,983.27
2018-12-18T01:41:36.153Z,983.24
2018-12-18T01:42:36.137Z,983.24
2018-12-18T01:43:36.123Z,983.21
2018-12-18T01:44:36.105Z,983.17
2018-12-18T01:45:36.094Z,983.18
2018-12-18T01:46:36.074Z,983.20
2018-12-18T01:47:36.059Z,983.19
2018-12-18T01:48:36.041Z,983.14
2018-12-18T01:49:36.027Z,983.14
2018-12-18T01:50:36.010Z,983.16
2018-12-18T01:51:35.994Z,983.14
2018-12-18T01:52:35.979Z,983.14
2018-12-18T01:53:35.961Z,983.12
2018-12-18T01:54:35.947Z,983.13
2018-12-18T01:55:35.931Z,983.13
2018-12-18T01:56:35.916Z,983.12
2018-12-18T01:57:35.937Z,983.05
2018-12-18T01:58:35.883Z,983.08
2018-12-18T01:59:35.865Z,983.11
2018-12-18T02:00:35.850Z,983.06
2018-12-18T02:01:35.833Z,983.08
2018-12-18T02:02:35.819Z,983.03
2018-12-18T02:03:35.801Z,983.09
2018-12-18T02:04:35.785Z,983.11
2018-12-18T02:05:35.771Z,983.09
2018-12-18T02:06:35.754Z,983.06
2018-12-18T02:07:35.737Z,983.05
2018-12-18T02:08:35.721Z,983.06
2018-12-18T02:09:35.707Z,983.03
2018-12-18T02:10:35.689Z,983.02
2018-12-18T02:11:35.674Z,983.05
2018-12-18T02:12:35.659Z,983.02
2018-12-18T02:13:35.642Z,982.98
2018-12-18T02:14:35.625Z,982.96
2018-12-18T02:15:35.610Z,982.98
2018-12-18T02:16:35.593Z,982.90
2018-12-18T02:17:35.579Z,982.93
2018-12-18T02:18:35.560Z,982.92
2018-12-18T02:19:35.547Z,982.89
2018-12-18T02:20:35.529Z,982.94
2018-12-18T02:21:35.514Z,982.93
2018-12-18T02:22:35.501Z,982.89
2018-12-18T02:23:35.482Z,982.86
2018-12-18T02:24:35.467Z,982.86
2018-12-18T02:25:35.452Z,982.90
2018-12-18T02:26:35.432Z,982.86
2018-12-18T02:27:35.415Z,982.82
2018-12-18T02:28:35.401Z,982.85
2018-12-18T02:29:35.385Z,982.83
2018-12-18T02:30:35.368Z,982.84
2018-12-18T02:31:35.354Z,982.86
2018-12-18T02:32:35.336Z,982.80
2018-12-18T02:33:35.322Z,982.81
2018-12-18T02:34:35.307Z,982.77
2018-12-18T02:35:35.289Z,982.74
2018-12-18T02:36:35.275Z,982.71
2018-12-18T02:37:35.259Z,982.67
2018-12-18T02:38:35.240Z,982.68
2018-12-18T02:39:35.227Z,982.68
2018-12-18T02:40:35.212Z,982.66
2018-12-18T02:41:35.194Z,982.66
2018-12-18T02:42:35.179Z,982.65
2018-12-18T02:43:35.160Z,982.65
2018-12-18T02:44:35.143Z,982.62
2018-12-18T02:45:35.131Z,982.62
2018-12-18T02:46:35.109Z,982.60
2018-12-18T02:47:35.094Z,982.58
2018-12-18T02:48:35.078Z,982.53
2018-12-18T02:49:35.062Z,982.58
2018-12-18T02:50:35.045Z,982.56
2018-12-18T02:51:35.038Z,982.58
2018-12-18T02:52:35.013Z,982.51
2018-12-18T02:53:34.997Z,982.52
2018-12-18T02:54:34.981Z,982.45
2018-12-18T02:55:34.963Z,982.49
2018-12-18T02:56:34.949Z,982.46
2018-12-18T02:57:34.933Z,982.48
2018-12-18T02:58:34.914Z,982.49
2018-12-18T02:59:34.901Z,982.43
2018-12-18T03:00:34.883Z,982.47
2018-12-18T03:01:34.867Z,982.43
2018-12-18T03:02:34.853Z,982.47
2018-12-18T03:03:34.834Z,982.46
2018-12-18T03:04:34.817Z,982.42
2018-12-18T03:05:34.800Z,982.43
2018-12-18T03:06:34.783Z,982.45
2018-12-18T03:07:34.767Z,982.42
2018-12-18T03:08:34.754Z,982.37
2018-12-18T03:09:34.746Z,982.38
2018-12-18T03:10:34.716Z,982.34
2018-12-18T03:11:34.701Z,982.37
2018-12-18T03:12:34.685Z,982.36
2018-12-18T03:13:34.669Z,982.36
2018-12-18T03:14:34.654Z,982.33
2018-12-18T03:15:34.636Z,982.29
2018-12-18T03:16:34.621Z,982.32
2018-12-18T03:17:34.605Z,982.32
2018-12-18T03:18:34.589Z,982.28
2018-12-18T03:19:34.572Z,982.26
2018-12-18T03:20:34.553Z,982.24
2018-12-18T03:21:34.542Z,982.23
2018-12-18T03:22:34.537Z,982.24
2018-12-18T03:23:34.504Z,982.21
2018-12-18T03:24:34.489Z,982.22
2018-12-18T03:25:34.474Z,982.22
2018-12-18T03:26:34.461Z,982.26
2018-12-18T03:27:34.440Z,982.23
2018-12-18T03:28:34.424Z,982.21
2018-12-18T03:29:34.407Z,982.20
2018-12-18T03:30:34.398Z,982.18
2018-12-18T03:31:34.374Z,982.11
2018-12-18T03:32:34.382Z,982.08
2018-12-18T03:33:34.347Z,982.08
2018-12-18T03:34:34.321Z,982.04
2018-12-18T03:35:34.309Z,982.02
2018-12-18T03:36:34.293Z,982.00
2018-12-18T03:37:34.276Z,982.03
2018-12-18T03:38:34.265Z,982.03
2018-12-18T03:39:34.244Z,981.96
2018-12-18T03:40:34.225Z,981.98
2018-12-18T03:41:34.208Z,982.03
2018-12-18T03:42:34.193Z,981.91
2018-12-18T03:43:34.180Z,981.91
2018-12-18T03:44:34.157Z,981.95
2018-12-18T03:45:34.143Z,981.95
2018-12-18T03:46:34.124Z,981.93
2018-12-18T03:47:34.110Z,981.93
2018-12-18T03:48:34.095Z,981.94
2018-12-18T03:49:34.077Z,982.01
2018-12-18T03:50:34.059Z,981.94
2018-12-18T03:51:34.041Z,981.89
2018-12-18T03:52:34.027Z,981.89
2018-12-18T03:53:34.009Z,981.89
2018-12-18T03:54:33.993Z,981.92
2018-12-18T03:55:33.975Z,981.90
2018-12-18T03:56:33.958Z,981.86
2018-12-18T03:57:33.940Z,981.89
2018-12-18T03:58:33.924Z,981.83
2018-12-18T03:59:33.909Z,981.86
2018-12-18T04:00:33.892Z,981.86
2018-12-18T04:01:33.875Z,981.87
2018-12-18T04:02:33.859Z,981.86
2018-12-18T04:03:33.841Z,981.86
2018-12-18T04:04:35.849Z,981.89
2018-12-18T04:05:33.808Z,981.93
2018-12-18T04:06:33.793Z,981.89
2018-12-18T04:07:33.777Z,981.92
2018-12-18T04:08:33.759Z,981.94
2018-12-18T04:09:33.744Z,981.88
2018-12-18T04:10:33.725Z,981.93
2018-12-18T04:11:33.709Z,981.94
2018-12-18T04:12:33.691Z,981.91
2018-12-18T04:13:33.678Z,981.99
2018-12-18T04:14:33.660Z,981.95
2018-12-18T04:15:33.642Z,981.96
2018-12-18T04:16:33.625Z,981.97
2018-12-18T04:17:33.609Z,981.99
2018-12-18T04:18:33.592Z,981.97
2018-12-18T04:19:33.574Z,981.95
2018-12-18T04:20:33.560Z,981.95
2018-12-18T04:21:33.542Z,981.87
2018-12-18T04:22:33.523Z,981.92
2018-12-18T04:23:33.507Z,981.96
2018-12-18T04:24:33.491Z,981.94
2018-12-18T04:25:33.474Z,981.96
2018-12-18T04:26:33.461Z,981.93
2018-12-18T04:27:33.442Z,981.96
2018-12-18T04:28:33.428Z,981.94
2018-12-18T04:29:33.407Z,981.96
2018-12-18T04:30:33.391Z,981.99
2018-12-18T04:31:33.377Z,982.01
2018-12-18T04:32:33.374Z,981.96
2018-12-18T04:33:33.341Z,981.93
2018-12-18T04:34:33.330Z,982.00
2018-12-18T04:35:33.307Z,981.97
2018-12-18T04:36:33.292Z,981.95
2018-12-18T04:37:33.274Z,981.94
2018-12-18T04:38:33.257Z,981.94
2018-12-18T04:39:33.240Z,981.99
2018-12-18T04:40:33.225Z,982.00
2018-12-18T04:41:33.208Z,982.03
2018-12-18T04:42:33.190Z,982.02
2018-12-18T04:43:33.171Z,981.95
2018-12-18T04:44:33.155Z,981.92
2018-12-18T04:45:33.138Z,981.95
2018-12-18T04:46:33.122Z,981.90
2018-12-18T04:47:33.103Z,981.87
2018-12-18T04:48:33.086Z,981.89
2018-12-18T04:49:33.074Z,981.94
2018-12-18T04:50:33.053Z,981.90
2018-12-18T04:51:33.035Z,981.89
2018-12-18T04:52:33.023Z,981.89
2018-12-18T04:53:33.006Z,981.87
2018-12-18T04:54:32.984Z,981.89
2018-12-18T04:55:32.967Z,981.84
2018-12-18T04:56:32.951Z,981.84
2018-12-18T04:57:32.933Z,981.89
2018-12-18T04:58:32.915Z,981.83
2018-12-18T04:59:32.899Z,981.83
2018-12-18T05:00:32.883Z,981.81
2018-12-18T05:01:32.866Z,981.86
2018-12-18T05:02:32.846Z,981.74
2018-12-18T05:03:32.833Z,981.75
2018-12-18T05:04:32.813Z,981.77
2018-12-18T05:05:32.794Z,981.76
2018-12-18T05:06:32.777Z,981.76
2018-12-18T05:07:32.761Z,981.78
2018-12-18T05:08:32.744Z,981.79
2018-12-18T05:09:32.732Z,981.79
2018-12-18T05:10:32.712Z,981.79
2018-12-18T05:11:32.698Z,981.79
2018-12-18T05:12:32.675Z,981.80
2018-12-18T05:13:32.658Z,981.84
2018-12-18T05:14:32.641Z,981.86
2018-12-18T05:15:32.622Z,981.86
2018-12-18T05:16:32.649Z,981.84
2018-12-18T05:17:32.589Z,981.87
2018-12-18T05:18:32.571Z,981.84
2018-12-18T05:19:32.554Z,981.84
2018-12-18T05:20:32.542Z,981.85
2018-12-18T05:21:32.518Z,981.87
2018-12-18T05:22:32.502Z,981.86
2018-12-18T05:23:32.485Z,981.88
2018-12-18T05:24:32.469Z,981.88
2018-12-18T05:25:32.451Z,981.95
2018-12-18T05:26:32.433Z,981.90
2018-12-18T05:27:32.416Z,981.90
2018-12-18T05:28:32.399Z,981.89
2018-12-18T05:29:32.381Z,981.88
2018-12-18T05:30:32.364Z,981.92
2018-12-18T05:31:32.347Z,981.87
2018-12-18T05:32:32.331Z,981.91
2018-12-18T05:33:32.316Z,981.84
2018-12-18T05:34:32.294Z,981.87
2018-12-18T05:35:32.278Z,981.81
2018-12-18T05:36:32.262Z,981.82
2018-12-18T05:37:32.245Z,981.79
2018-12-18T05:38:32.225Z,981.84
2018-12-18T05:39:32.207Z,981.86
2018-12-18T05:40:32.191Z,981.83
2018-12-18T05:41:32.173Z,981.86
2018-12-18T05:42:32.157Z,981.81
2018-12-18T05:43:32.140Z,981.82
2018-12-18T05:44:32.120Z,981.87
2018-12-18T05:45:32.105Z,981.83
2018-12-18T05:46:32.089Z,981.88
2018-12-18T05:47:32.069Z,981.85
2018-12-18T05:48:32.054Z,981.85
2018-12-18T05:49:32.036Z,981.85
2018-12-18T05:50:32.019Z,981.86
2018-12-18T05:51:32.001Z,981.88
2018-12-18T05:52:31.983Z,981.86
2018-12-18T05:53:31.966Z,981.94
2018-12-18T05:54:31.948Z,981.87
2018-12-18T05:55:31.930Z,981.89
2018-12-18T05:56:31.915Z,981.94
2018-12-18T05:57:31.900Z,981.94
2018-12-18T05:58:31.879Z,981.95
2018-12-18T05:59:31.862Z,982.02
2018-12-18T06:00:31.846Z,982.00
2018-12-18T06:01:31.828Z,982.08
2018-12-18T06:02:31.809Z,982.06
2018-12-18T06:03:31.792Z,982.14
2018-12-18T06:04:31.774Z,982.13
2018-12-18T06:05:31.758Z,982.15
2018-12-18T06:06:31.742Z,982.17
2018-12-18T06:07:31.723Z,982.15
2018-12-18T06:08:31.705Z,982.18
2018-12-18T06:09:31.689Z,982.13
2018-12-18T06:10:31.669Z,982.16
2018-12-18T06:11:31.652Z,982.13
2018-12-18T06:12:31.637Z,982.14
2018-12-18T06:13:31.619Z,982.10
2018-12-18T06:14:31.604Z,982.12
2018-12-18T06:15:31.585Z,982.09
2018-12-18T06:16:31.573Z,982.07
2018-12-18T06:17:31.551Z,982.03
2018-12-18T06:18:31.534Z,982.04
2018-12-18T06:19:31.518Z,982.08
2018-12-18T06:20:31.501Z,982.03
2018-12-18T06:21:31.484Z,982.07
2018-12-18T06:22:31.465Z,982.05
2018-12-18T06:23:31.447Z,982.05
2018-12-18T06:24:31.430Z,982.05
2018-12-18T06:25:31.414Z,982.06
2018-12-18T06:26:31.397Z,982.09
2018-12-18T06:27:31.378Z,982.11
2018-12-18T06:28:31.363Z,982.10
2018-12-18T06:29:31.344Z,982.12
2018-12-18T06:30:31.331Z,982.09
2018-12-18T06:31:31.310Z,982.09
2018-12-18T06:32:31.292Z,982.07
2018-12-18T06:33:31.274Z,982.05
2018-12-18T06:34:31.256Z,982.03
2018-12-18T06:35:31.241Z,982.03
2018-12-18T06:36:31.230Z,982.05
2018-12-18T06:37:31.208Z,982.01
2018-12-18T06:38:31.190Z,982.02
2018-12-18T06:39:31.173Z,982.00
2018-12-18T06:40:31.156Z,981.97
2018-12-18T06:41:31.142Z,981.99
2018-12-18T06:42:31.122Z,982.01
2018-12-18T06:43:31.104Z,982.02
2018-12-18T06:44:31.086Z,982.03
2018-12-18T06:45:31.072Z,982.01
2018-12-18T06:46:31.056Z,982.03
2018-12-18T06:47:31.036Z,982.02
2018-12-18T06:48:31.019Z,982.01
2018-12-18T06:49:31.001Z,982.04
2018-12-18T06:50:30.987Z,982.03
2018-12-18T06:51:30.969Z,982.07
2018-12-18T06:52:30.957Z,982.09
2018-12-18T06:53:30.937Z,982.11
2018-12-18T06:54:30.919Z,982.09
2018-12-18T06:55:30.901Z,982.13
2018-12-18T06:56:30.884Z,982.13
2018-12-18T06:57:30.866Z,982.14
2018-12-18T06:58:30.851Z,982.16
2018-12-18T06:59:30.831Z,982.10
2018-12-18T07:00:30.816Z,982.17
2018-12-18T07:01:30.800Z,982.17
2018-12-18T07:02:30.782Z,982.20
2018-12-18T07:03:30.766Z,982.24
2018-12-18T07:04:30.749Z,982.18
2018-12-18T07:05:30.736Z,982.25
2018-12-18T07:06:30.714Z,982.26
2018-12-18T07:07:30.700Z,982.25
2018-12-18T07:08:30.680Z,982.22
2018-12-18T07:09:30.666Z,982.21
2018-12-18T07:10:30.648Z,982.21
2018-12-18T07:11:30.632Z,982.22
2018-12-18T07:12:30.617Z,982.24
2018-12-18T07:13:30.608Z,982.27
2018-12-18T07:14:30.579Z,982.28
2018-12-18T07:15:30.563Z,982.27
2018-12-18T07:16:30.548Z,982.27
2018-12-18T07:17:30.532Z,982.22
2018-12-18T07:18:30.514Z,982.23
2018-12-18T07:19:30.496Z,982.24
2018-12-18T07:20:30.481Z,982.20
2018-12-18T07:21:30.463Z,982.15
2018-12-18T07:22:30.446Z,982.11
2018-12-18T07:23:30.428Z,982.10
2018-12-18T07:24:30.422Z,982.07
2018-12-18T07:25:30.398Z,982.03
2018-12-18T07:26:30.379Z,982.02
2018-12-18T07:27:30.364Z,982.04
2018-12-18T07:28:30.346Z,982.03
2018-12-18T07:29:30.331Z,982.06
2018-12-18T07:30:30.320Z,982.03
2018-12-18T07:31:30.296Z,982.05
2018-12-18T07:32:30.281Z,982.02
2018-12-18T07:33:30.264Z,981.96
2018-12-18T07:34:33.385Z,981.93
2018-12-18T07:35:30.228Z,981.97
2018-12-18T07:36:30.211Z,981.93
2018-12-18T07:37:30.200Z,981.89
2018-12-18T07:38:30.177Z,981.96
2018-12-18T07:39:30.163Z,981.97
2018-12-18T07:40:30.147Z,982.00
2018-12-18T07:41:30.130Z,981.97
2018-12-18T07:42:30.109Z,981.93
2018-12-18T07:43:30.094Z,981.93
2018-12-18T07:44:30.078Z,981.88
2018-12-18T07:45:30.062Z,981.86
2018-12-18T07:46:30.044Z,981.82
2018-12-18T07:47:30.029Z,981.83
2018-12-18T07:48:30.009Z,981.76
2018-12-18T07:49:29.992Z,981.78
2018-12-18T07:50:29.977Z,981.75
2018-12-18T07:51:29.963Z,981.72
2018-12-18T07:52:29.943Z,981.69
2018-12-18T07:53:29.925Z,981.75
2018-12-18T07:54:29.911Z,981.76
2018-12-18T07:55:29.899Z,981.83
2018-12-18T07:56:29.878Z,981.86
2018-12-18T07:57:29.861Z,981.85
2018-12-18T07:58:29.843Z,981.89
2018-12-18T07:59:29.827Z,981.92
2018-12-18T08:00:29.812Z,981.97
2018-12-18T08:01:29.795Z,981.98
2018-12-18T08:02:29.777Z,981.95
2018-12-18T08:03:29.764Z,981.95
2018-12-18T08:04:29.746Z,981.95
2018-12-18T08:05:30.183Z,981.92
2018-12-18T08:06:29.711Z,981.92
2018-12-18T08:07:29.694Z,981.99
2018-12-18T08:08:29.680Z,981.99
2018-12-18T08:09:29.661Z,981.98
2018-12-18T08:10:29.644Z,981.97
2018-12-18T08:11:29.630Z,981.92
2018-12-18T08:12:29.612Z,981.95
2018-12-18T08:13:29.597Z,981.90
2018-12-18T08:14:29.578Z,981.89
2018-12-18T08:15:29.562Z,981.91
2018-12-18T08:16:29.545Z,981.87
2018-12-18T08:17:29.528Z,981.83
2018-12-18T08:18:29.510Z,981.86
2018-12-18T08:19:29.497Z,981.87
2018-12-18T08:20:29.479Z,981.85
2018-12-18T08:21:29.464Z,981.89
2018-12-18T08:22:29.444Z,981.85
2018-12-18T08:23:29.427Z,981.85
2018-12-18T08:24:29.416Z,981.85
2018-12-18T08:25:29.395Z,981.86
2018-12-18T08:26:29.376Z,981.88
2018-12-18T08:27:29.358Z,981.83
2018-12-18T08:28:29.343Z,981.83
2018-12-18T08:29:29.326Z,981.76
2018-12-18T08:30:29.308Z,981.78
2018-12-18T08:31:29.293Z,981.79
2018-12-18T08:32:29.277Z,981.79
2018-12-18T08:33:29.260Z,981.77
2018-12-18T08:34:29.243Z,981.79
2018-12-18T08:35:29.229Z,981.75
2018-12-18T08:36:29.206Z,981.70
2018-12-18T08:37:29.192Z,981.69
2018-12-18T08:38:29.171Z,981.71
2018-12-18T08:39:29.155Z,981.71
2018-12-18T08:40:29.140Z,981.73
2018-12-18T08:41:29.121Z,981.74
2018-12-18T08:42:29.105Z,981.72
2018-12-18T08:43:29.088Z,981.71
2018-12-18T08:44:29.070Z,981.70
2018-12-18T08:45:29.102Z,981.69
2018-12-18T08:46:29.035Z,981.75
2018-12-18T08:47:29.018Z,981.74
2018-12-18T08:48:29.004Z,981.72
2018-12-18T08:49:28.986Z,981.71
2018-12-18T08:50:28.967Z,981.71
2018-12-18T08:51:28.952Z,981.74
2018-12-18T08:52:28.935Z,981.76
2018-12-18T08:53:28.916Z,981.75
2018-12-18T08:54:28.900Z,981.72
2018-12-18T08:55:28.882Z,981.69
2018-12-18T08:56:28.867Z,981.71
2018-12-18T08:57:28.851Z,981.72
2018-12-18T08:58:28.834Z,981.69
2018-12-18T08:59:28.817Z,981.70
2018-12-18T09:00:28.800Z,981.73
2018-12-18T09:01:28.782Z,981.74
2018-12-18T09:02:28.765Z,981.72
2018-12-18T09:03:28.750Z,981.72
2018-12-18T09:04:28.733Z,981.69
2018-12-18T09:05:28.715Z,981.71
2018-12-18T09:06:28.698Z,981.69
2018-12-18T09:07:28.680Z,981.63
2018-12-18T09:08:28.691Z,981.61
2018-12-18T09:09:28.651Z,981.57
2018-12-18T09:10:28.631Z,981.60
2018-12-18T09:11:28.616Z,981.57
2018-12-18T09:12:28.598Z,981.57
2018-12-18T09:13:28.584Z,981.54
2018-12-18T09:14:28.563Z,981.49
2018-12-18T09:15:28.549Z,981.44
2018-12-18T09:16:28.591Z,981.42
2018-12-18T09:17:28.515Z,981.31
2018-12-18T09:18:28.497Z,981.34
2018-12-18T09:19:28.481Z,981.35
2018-12-18T09:20:28.465Z,981.32
2018-12-18T09:21:28.447Z,981.26
2018-12-18T09:22:28.431Z,981.30
2018-12-18T09:23:28.415Z,981.28
2018-12-18T09:24:28.398Z,981.23
2018-12-18T09:25:28.380Z,981.19
2018-12-18T09:26:28.361Z,981.14
2018-12-18T09:27:28.346Z,981.16
2018-12-18T09:28:28.331Z,981.09
2018-12-18T09:29:28.312Z,981.13
2018-12-18T09:30:28.294Z,981.13
2018-12-18T09:31:28.282Z,981.13
2018-12-18T09:32:28.268Z,981.07
2018-12-18T09:33:28.245Z,981.03
2018-12-18T09:34:28.228Z,981.06
2018-12-18T09:35:28.211Z,981.01
2018-12-18T09:36:28.196Z,981.01
2018-12-18T09:37:28.177Z,981.01
2018-12-18T09:38:28.159Z,980.91
2018-12-18T09:39:28.141Z,980.92
2018-12-18T09:40:28.125Z,980.91
2018-12-18T09:41:28.107Z,980.94
2018-12-18T09:42:28.093Z,980.93
2018-12-18T09:43:28.082Z,980.95
2018-12-18T09:44:28.057Z,980.91
2018-12-18T09:45:28.041Z,980.91
2018-12-18T09:46:28.022Z,980.90
2018-12-18T09:47:28.005Z,980.92
2018-12-18T09:48:27.990Z,980.82
2018-12-18T09:49:27.972Z,980.83
2018-12-18T09:50:27.956Z,980.81
2018-12-18T09:51:27.938Z,980.80
2018-12-18T09:52:27.919Z,980.80
2018-12-18T09:53:27.909Z,980.80
2018-12-18T09:54:27.887Z,980.80
2018-12-18T09:55:27.868Z,980.77
2018-12-18T09:56:27.852Z,980.76
2018-12-18T09:57:27.833Z,980.78
2018-12-18T09:58:27.823Z,980.78
2018-12-18T09:59:27.800Z,980.83
2018-12-18T10:00:27.783Z,980.81
2018-12-18T10:01:27.766Z,980.85
2018-12-18T10:02:27.751Z,980.85
2018-12-18T10:03:33.358Z,980.85
2018-12-18T10:04:27.717Z,980.78
2018-12-18T10:05:27.701Z,980.78
2018-12-18T10:06:27.682Z,980.74
2018-12-18T10:07:27.665Z,980.71
2018-12-18T10:08:27.648Z,980.68
2018-12-18T10:09:27.635Z,980.71
2018-12-18T10:10:27.617Z,980.68
2018-12-18T10:11:27.598Z,980.68
2018-12-18T10:12:27.593Z,980.60
2018-12-18T10:13:27.568Z,980.58
2018-12-18T10:14:27.552Z,980.52
2018-12-18T10:15:27.532Z,980.45
2018-12-18T10:16:27.514Z,980.39
2018-12-18T10:17:27.497Z,980.43
2018-12-18T10:18:27.482Z,980.41
2018-12-18T10:19:27.463Z,980.38
2018-12-18T10:20:27.448Z,980.36
2018-12-18T10:21:27.434Z,980.38
2018-12-18T10:22:27.415Z,980.34
2018-12-18T10:23:27.398Z,980.30
2018-12-18T10:24:27.381Z,980.25
2018-12-18T10:25:27.367Z,980.21
2018-12-18T10:26:27.347Z,980.22
2018-12-18T10:27:27.333Z,980.19
2018-12-18T10:28:27.318Z,980.17
2018-12-18T10:29:27.301Z,980.16
2018-12-18T10:30:27.282Z,980.19
2018-12-18T10:31:27.268Z,980.20
2018-12-18T10:32:27.251Z,980.27
2018-12-18T10:33:27.303Z,980.21
2018-12-18T10:34:27.222Z,980.19
2018-12-18T10:35:27.200Z,980.18
2018-12-18T10:36:27.184Z,980.15
2018-12-18T10:37:27.170Z,980.06
2018-12-18T10:38:27.153Z,980.02
2018-12-18T10:39:27.138Z,979.99
2018-12-18T10:40:27.119Z,979.95
2018-12-18T10:41:27.105Z,979.93
2018-12-18T10:42:27.086Z,979.94
2018-12-18T10:43:27.072Z,979.93
2018-12-18T10:44:27.057Z,979.94
2018-12-18T10:45:27.038Z,979.90
2018-12-18T10:46:27.021Z,979.99
2018-12-18T10:47:27.006Z,979.94
2018-12-18T10:48:26.988Z,980.01
2018-12-18T10:49:26.972Z,979.97
2018-12-18T10:50:26.959Z,979.99
2018-12-18T10:51:26.941Z,979.93
2018-12-18T10:52:26.926Z,979.95
2018-12-18T10:53:26.909Z,979.97
2018-12-18T10:54:26.892Z,979.97
2018-12-18T10:55:26.875Z,979.97
2018-12-18T10:56:26.859Z,979.92
2018-12-18T10:57:26.846Z,979.86
2018-12-18T10:58:26.830Z,979.86
2018-12-18T10:59:26.816Z,979.83
2018-12-18T11:00:26.794Z,979.81
2018-12-18T11:01:26.779Z,979.84
2018-12-18T11:02:26.763Z,979.92
2018-12-18T11:03:26.750Z,979.97
2018-12-18T11:04:26.730Z,980.00
2018-12-18T11:05:26.715Z,979.97
2018-12-18T11:06:26.699Z,979.94
2018-12-18T11:07:26.683Z,979.82
2018-12-18T11:08:26.671Z,979.86
2018-12-18T11:09:26.652Z,979.82
2018-12-18T11:10:26.634Z,979.84
2018-12-18T11:11:26.620Z,979.86
2018-12-18T11:12:26.604Z,979.85
2018-12-18T11:13:26.586Z,979.85
2018-12-18T11:14:26.572Z,979.75
2018-12-18T11:15:26.556Z,979.70
2018-12-18T11:16:26.538Z,979.66
2018-12-18T11:17:26.520Z,979.58
2018-12-18T11:18:26.503Z,979.51
2018-12-18T11:19:26.488Z,979.50
2018-12-18T11:20:26.470Z,979.51
2018-12-18T11:21:26.458Z,979.53
2018-12-18T11:22:26.439Z,979.59
2018-12-18T11:23:26.424Z,979.57
2018-12-18T11:24:26.408Z,979.58
2018-12-18T11:25:26.392Z,979.53
2018-12-18T11:26:26.374Z,979.51
2018-12-18T11:27:26.366Z,979.50
2018-12-18T11:28:26.343Z,979.43
2018-12-18T11:29:26.327Z,979.45
2018-12-18T11:30:26.311Z,979.42
2018-12-18T11:31:26.297Z,979.42
2018-12-18T11:32:32.890Z,979.41
2018-12-18T11:33:26.262Z,979.37
2018-12-18T11:34:26.248Z,979.35
2018-12-18T11:35:26.231Z,979.39
2018-12-18T11:36:26.211Z,979.31
2018-12-18T11:37:26.200Z,979.28
2018-12-18T11:38:26.180Z,979.27
2018-12-18T11:39:26.164Z,979.19
2018-12-18T11:40:26.146Z,979.18
2018-12-18T11:41:26.132Z,979.13
2018-12-18T11:42:26.113Z,979.09
2018-12-18T11:43:26.101Z,979.07
2018-12-18T11:44:26.086Z,979.05
2018-12-18T11:45:26.066Z,979.03
2018-12-18T11:46:26.050Z,978.99
2018-12-18T11:47:26.033Z,978.98
2018-12-18T11:48:26.020Z,978.96
2018-12-18T11:49:26.000Z,978.94
2018-12-18T11:50:25.984Z,978.90
2018-12-18T11:51:25.970Z,978.85
2018-12-18T11:52:25.952Z,978.83
2018-12-18T11:53:25.935Z,978.80
2018-12-18T11:54:25.918Z,978.79
2018-12-18T11:55:25.962Z,978.82
2018-12-18T11:56:25.886Z,978.79
2018-12-18T11:57:25.868Z,978.82
2018-12-18T11:58:25.853Z,978.82
2018-12-18T11:59:25.836Z,978.83
2018-12-18T12:00:25.819Z,978.82
2018-12-18T12:01:25.804Z,978.85
2018-12-18T12:02:25.790Z,978.82
2018-12-18T12:03:25.774Z,978.86
2018-12-18T12:04:25.761Z,978.89
2018-12-18T12:05:25.738Z,978.88
2018-12-18T12:06:25.721Z,978.90
2018-12-18T12:07:25.703Z,978.89
2018-12-18T12:08:25.689Z,978.87
2018-12-18T12:09:25.675Z,978.86
2018-12-18T12:10:25.657Z,978.87
2018-12-18T12:11:25.645Z,978.81
2018-12-18T12:12:25.622Z,978.82
2018-12-18T12:13:25.609Z,978.84
2018-12-18T12:14:25.619Z,978.86
2018-12-18T12:15:25.575Z,978.85
2018-12-18T12:16:25.558Z,978.78
2018-12-18T12:17:25.540Z,978.81
2018-12-18T12:18:25.522Z,978.81
2018-12-18T12:19:25.509Z,978.76
2018-12-18T12:20:25.490Z,978.74
2018-12-18T12:21:25.476Z,978.71
2018-12-18T12:22:25.458Z,978.68
2018-12-18T12:23:25.440Z,978.67
2018-12-18T12:24:25.427Z,978.63
2018-12-18T12:25:25.408Z,978.58
2018-12-18T12:26:25.393Z,978.60
2018-12-18T12:27:25.376Z,978.59
2018-12-18T12:28:25.358Z,978.58